Item Display Status Humidity-temperature Sensor

Elevation Above Sea Level: 3 m

 

Deployed Sensor

  • Serial Number: 61085449
  • NDBC Property Number: 36571
  • Start Date: 12/6/2018 (14:51:27 Z)
  • End Date: Currently Active
Relative Humidity [%]     6 entries per hour
Showing data from 7/2/2019 (11:50:00 Z) to 7/1/2019 (23:00:00 Z)
Previous Next [ Day | 3-Days | 7-Days ]
First Last
Prev [ Day | 3-Days | 7-Days ] Next
First Last

Start Time:     :
End Time:     :     
Time (in GMT) :00 :50 :40 :30 :20 :10
Previous Next [ Day | 3-Days | 7-Days ]
First Last
Prev [ Day | 3-Days | 7-Days ] Next
First Last


123 => good data
MM => data is determined as missing
-- => data not received/configured
Back to Top Back to Top
7/2/2019 12:00 to 11:10 -- 93.35 93.37 93.17 92.52 93.00
7/2/2019 11:00 to 10:10 93.26 92.50 92.09 91.79 91.70 92.09
7/2/2019 10:00 to 9:10 92.33 93.50 93.05 92.50 92.22 92.17
7/2/2019 09:00 to 8:10 92.67 92.28 91.24 91.50 91.76 92.18
7/2/2019 08:00 to 7:10 92.24 91.83 91.52 91.22 90.67 90.41
7/2/2019 07:00 to 6:10 90.18 89.96 90.07 90.22 89.67 89.96
7/2/2019 06:00 to 5:10 90.09 90.09 90.39 90.76 90.61 90.07
7/2/2019 05:00 to 4:10 89.18 89.35 88.31 89.44 92.98 93.48
7/2/2019 04:00 to 3:10 94.26 94.44 93.96 93.85 94.61 94.89
7/2/2019 03:00 to 2:10 95.13 94.83 94.15 93.52 93.20 93.28
7/2/2019 02:00 to 1:10 93.04 93.65 93.55 93.78 92.94 91.92
7/2/2019 01:00 to 0:10 91.29 90.57 90.33 92.33 92.20 91.28
7/2/2019 00:00 to 23:10 91.65 94.05 93.50 93.09 93.20 93.13

 

 

 

Air Temperature [°C]     6 entries per hour
Showing data from 11/19/2019 (14:00:00 Z) to 11/18/2019 (00:00:01 Z)
Previous Next [ Day | 3-Days | 7-Days ]
First Last
Prev [ Day | 3-Days | 7-Days ] Next
First Last

Start Time:     :
End Time:     :     
Time (in GMT) :00 :50 :40 :30 :20 :10
Previous Next [ Day | 3-Days | 7-Days ]
First Last
Prev [ Day | 3-Days | 7-Days ] Next
First Last


123 => good data
MM => data is determined as missing
-- => data not received/configured
Back to Top Back to Top
11/19/2019 14:00 to 13:10 23.78 23.64 23.56 23.43 23.45 23.45
11/19/2019 13:00 to 12:10 23.40 23.39 23.43 23.47 23.49 23.31
11/19/2019 12:00 to 11:10 23.34 23.33 23.39 23.47 23.28 23.23
11/19/2019 11:00 to 10:10 23.48 23.34 23.38 23.32 23.34 23.35
11/19/2019 10:00 to 9:10 23.34 23.28 23.21 23.31 23.13 23.31
11/19/2019 09:00 to 8:10 23.42 23.34 23.23 23.47 23.39 23.40
11/19/2019 08:00 to 7:10 23.48 23.43 23.48 23.36 23.42 23.46
11/19/2019 07:00 to 6:10 23.47 23.59 23.56 23.57 23.65 23.36
11/19/2019 06:00 to 5:10 23.64 23.50 23.61 23.63 23.56 23.57
11/19/2019 05:00 to 4:10 23.63 23.54 23.70 23.59 23.63 23.60
11/19/2019 04:00 to 3:10 23.57 23.40 23.55 23.54 23.56 23.62
11/19/2019 03:00 to 2:10 23.58 23.68 23.67 23.81 23.66 23.73
11/19/2019 02:00 to 1:10 23.60 23.64 23.57 23.68 23.61 23.68
11/19/2019 01:00 to 0:10 23.65 23.79 23.89 24.04 24.05 24.11
11/19/2019 00:00 to 23:10 23.92 23.94 23.80 23.78 23.93 23.99
11/18/2019 23:00 to 22:10 23.94 23.82 23.77 23.86 23.91 23.90
11/18/2019 22:00 to 21:10 23.74 23.74 23.82 23.60 23.60 23.67
11/18/2019 21:00 to 20:10 23.56 23.70 23.59 23.50 23.56 23.57
11/18/2019 20:00 to 19:10 23.45 23.64 23.48 23.54 23.69 23.54
11/18/2019 19:00 to 18:10 23.54 23.59 23.54 23.69 23.77 23.50
11/18/2019 18:00 to 17:10 23.45 23.55 23.59 23.54 23.51 23.54
11/18/2019 17:00 to 16:10 23.49 23.60 23.78 23.76 23.63 23.69
11/18/2019 16:00 to 15:10 23.79 23.65 23.71 23.79 23.76 23.66
11/18/2019 15:00 to 14:10 23.69 23.80 23.71 23.76 23.71 23.66
11/18/2019 14:00 to 13:10 23.66 23.53 23.55 23.31 23.32 23.08
11/18/2019 13:00 to 12:10 23.07 23.08 23.06 23.02 23.04 22.94
11/18/2019 12:00 to 11:10 23.10 23.05 23.21 23.23 23.37 23.22
11/18/2019 11:00 to 10:10 23.33 23.25 23.23 23.31 23.28 23.24
11/18/2019 10:00 to 9:10 23.31 23.23 23.20 23.13 23.23 23.19
11/18/2019 09:00 to 8:10 23.32 23.15 23.23 23.02 23.27 23.31
11/18/2019 08:00 to 7:10 23.22 23.12 23.30 23.24 23.38 23.45
11/18/2019 07:00 to 6:10 23.42 23.43 23.52 23.24 23.61 23.42
11/18/2019 06:00 to 5:10 23.47 23.47 23.41 23.65 23.47 23.48
11/18/2019 05:00 to 4:10 23.54 23.44 23.54 23.44 23.41 23.35
11/18/2019 04:00 to 3:10 23.48 23.40 23.44 23.53 23.42 23.55
11/18/2019 03:00 to 2:10 23.50 23.48 23.64 23.69 23.45 23.49
11/18/2019 02:00 to 1:10 23.49 23.57 23.42 23.40 23.52 23.47
11/18/2019 01:00 to 0:10 23.52 23.62 23.59 23.54 23.62 23.57